Leeds, Massachusetts
Current Conditions -  °F | °C
As of 12:53 PM on Monday 26 Jan 2015 (Local Time) from KBAF Reporting Station
Overcast Overcast  
Wind Chill:   Ceiling: 4800
Heat Index: 19°   Visibility: 10mi
Dew Point:   Wind: 12mph
Humidity: 46%   Direction: 10°N
Pressure: 30.02"   Gusts: NA
Location:  42.35°N, 72.7°W
Report Text: KBAF 261753Z 01010KT 10SM OVC048 M07/M17 A3002 RMK AO2 PRESFR SLP176 T10721172 11072 21117 58033
Loading
Personal Weather Stations






























Interactive Weather Map New forecast layout! Learn more

10-Day Weather Forecast

Advertisements
Track Severe Weather on mobile